Aeroporto :
LOGIN :

Iscrizione | Disclaimer

   EN    FR    IT 

 










Sommario :    VFR   VFR Marginale   IFR   IFR Intensivo   IFR Molto Intensivo
Visibilità : 
Base nubi : 
>= 8 km
>= 3000ft
5 / 8 km
1000 / 3000 ft
1500m / 5 km
500 / 1000 ft
800 / 1500m
200 / 500 ft
< 800m
< 200 ft
Simboli :   Temporali  Nebbia  Neve Forte  Precipitazioni Forti  Vento > 20 kt
SIGMETs :   Varie  Temporali  Ghiacco  Turbolenza  Onda orograficha  Ceneri Vulcaniche







- Altitudine del aeroporto : 659 ft
- Codice IATA : LYN
- Carte del aeroporto


LFLY - Lyon Bron

ULTIMO METAR :
  • 191530Z AUTO VRB03KT CAVOK 15/02 Q1021 NOSIG

METARs OBSOLETI :
  • 191500Z AUTO VRB02KT CAVOK 15/03 Q1021 NOSIG
  • 191430Z AUTO 23005KT 190V280 CAVOK 15/03 Q1021 NOSIG
  • 191400Z AUTO 22005KT CAVOK 14/03 Q1022 NOSIG
  • 191330Z AUTO VRB04KT CAVOK 14/03 Q1022 NOSIG
  • 191300Z AUTO VRB03KT CAVOK 14/04 Q1022 NOSIG

TAF TAF LFLY
Valido dal 19 a 12 ore il 20 a 12 ore UTC


191100Z 1912/2012 VRB03KT CAVOK
PROB40
TEMPO 2003/2008 4000 BR
ATIS : +33 4 72 15 87 96
Nessun NOTAM noto per questo aeroporto.



MetMap, La meteo Aeronautica in un colpo d'occhio ! - Copyright ORBIFLY Dicembre 2007 - Disclaimer

ORBIFLY MET'MAP TEAM :

Programmazione e sviluppo : Alexandra Zaïnal
Concezione e sviluppo : Baudouin d'Aumeries
Co-Programmazione e sviluppo : Marc-Olivier Méhu
Supporto tecnico e logistico : Manuel Goepfert
Aiuto per la traduzione : Arnaldo La Scala

Contatto : metmap@orbifly.com




FONTI E CREDITI :

   NOAA